sensor_id;sensor_type;location;lat;lon;timestamp;pressure;altitude;pressure_sealevel;temperature;humidity
75497;BME280;64074;47.540;19.072;2023-08-06T00:00:23;99204.19;;;21.55;85.22
75497;BME280;64074;47.540;19.072;2023-08-06T00:03:26;99215.69;;;21.35;84.75
75497;BME280;64074;47.540;19.072;2023-08-06T00:06:29;99222.75;;;21.36;83.98
75497;BME280;64074;47.540;19.072;2023-08-06T00:09:32;99224.31;;;21.30;84.79
75497;BME280;64074;47.540;19.072;2023-08-06T00:12:36;99226.28;;;21.30;84.69
75497;BME280;64074;47.540;19.072;2023-08-06T00:15:40;99238.09;;;21.23;85.00
75497;BME280;64074;47.540;19.072;2023-08-06T00:18:43;99242.44;;;21.24;85.55
75497;BME280;64074;47.540;19.072;2023-08-06T00:21:47;99249.56;;;21.36;85.58
75497;BME280;64074;47.540;19.072;2023-08-06T00:24:50;99246.78;;;21.39;85.70
75497;BME280;64074;47.540;19.072;2023-08-06T00:27:53;99248.34;;;21.65;85.50
75497;BME280;64074;47.540;19.072;2023-08-06T00:30:57;99242.41;;;21.74;85.83
75497;BME280;64074;47.540;19.072;2023-08-06T00:34:00;99235.31;;;21.69;87.08
75497;BME280;64074;47.540;19.072;2023-08-06T00:37:06;99247.53;;;21.72;86.54
75497;BME280;64074;47.540;19.072;2023-08-06T00:40:09;99231.34;;;21.77;86.38
75497;BME280;64074;47.540;19.072;2023-08-06T00:43:12;99206.94;;;21.72;85.65
75497;BME280;64074;47.540;19.072;2023-08-06T00:46:16;99183.34;;;21.57;87.00
75497;BME280;64074;47.540;19.072;2023-08-06T00:49:19;99187.28;;;21.60;87.09
75497;BME280;64074;47.540;19.072;2023-08-06T00:52:23;99193.56;;;21.53;88.03
75497;BME280;64074;47.540;19.072;2023-08-06T00:55:26;99187.22;;;21.70;87.83
75497;BME280;64074;47.540;19.072;2023-08-06T00:58:30;99180.94;;;21.70;87.82
75497;BME280;64074;47.540;19.072;2023-08-06T01:01:33;99170.72;;;21.56;87.84
75497;BME280;64074;47.540;19.072;2023-08-06T01:04:37;99177.84;;;21.29;89.19
75497;BME280;64074;47.540;19.072;2023-08-06T01:08:11;99173.09;;;21.47;87.93
75497;BME280;64074;47.540;19.072;2023-08-06T01:14:50;99175.06;;;21.46;86.95
75497;BME280;64074;47.540;19.072;2023-08-06T01:17:56;99177.47;;;21.34;86.88
75497;BME280;64074;47.540;19.072;2023-08-06T01:21:00;99168.75;;;20.68;88.48
75497;BME280;64074;47.540;19.072;2023-08-06T01:24:04;99162.03;;;20.51;89.08
75497;BME280;64074;47.540;19.072;2023-08-06T01:27:10;99160.88;;;20.63;89.00
75497;BME280;64074;47.540;19.072;2023-08-06T01:30:25;99152.22;;;20.78;87.75
75497;BME280;64074;47.540;19.072;2023-08-06T01:33:31;99160.09;;;20.73;87.46
75497;BME280;64074;47.540;19.072;2023-08-06T01:36:36;99160.50;;;20.75;86.90
75497;BME280;64074;47.540;19.072;2023-08-06T01:39:42;99150.28;;;20.82;87.50
75497;BME280;64074;47.540;19.072;2023-08-06T01:42:46;99149.09;;;20.83;87.62
75497;BME280;64074;47.540;19.072;2023-08-06T01:45:49;99152.63;;;20.95;87.31
75497;BME280;64074;47.540;19.072;2023-08-06T01:48:52;99143.19;;;20.85;87.62
75497;BME280;64074;47.540;19.072;2023-08-06T01:51:55;99143.19;;;20.78;87.35
75497;BME280;64074;47.540;19.072;2023-08-06T01:54:58;99130.19;;;20.93;86.53
75497;BME280;64074;47.540;19.072;2023-08-06T01:58:01;99130.59;;;21.02;86.73
75497;BME280;64074;47.540;19.072;2023-08-06T02:01:04;99114.06;;;20.95;86.34
75497;BME280;64074;47.540;19.072;2023-08-06T02:04:07;99104.63;;;20.85;86.79
75497;BME280;64074;47.540;19.072;2023-08-06T02:07:10;99099.88;;;20.96;86.86
75497;BME280;64074;47.540;19.072;2023-08-06T02:10:13;99100.25;;;21.05;87.22
75497;BME280;64074;47.540;19.072;2023-08-06T02:13:16;99090.81;;;20.99;87.99
75497;BME280;64074;47.540;19.072;2023-08-06T02:16:19;99091.63;;;21.10;86.95
75497;BME280;64074;47.540;19.072;2023-08-06T02:19:23;99088.84;;;21.00;87.60
75497;BME280;64074;47.540;19.072;2023-08-06T02:22:26;99081.78;;;20.92;87.24
75497;BME280;64074;47.540;19.072;2023-08-06T02:25:30;99077.06;;;20.96;86.87
75497;BME280;64074;47.540;19.072;2023-08-06T02:28:34;99067.59;;;21.07;86.34
75497;BME280;64074;47.540;19.072;2023-08-06T02:31:38;99080.97;;;21.05;86.44
75497;BME280;64074;47.540;19.072;2023-08-06T02:34:41;99068.38;;;21.11;87.60
75497;BME280;64074;47.540;19.072;2023-08-06T02:37:44;99067.97;;;21.16;87.53
75497;BME280;64074;47.540;19.072;2023-08-06T02:40:48;99062.88;;;21.08;88.07
75497;BME280;64074;47.540;19.072;2023-08-06T02:43:52;99054.56;;;21.18;88.01
75497;BME280;64074;47.540;19.072;2023-08-06T02:46:55;99057.31;;;21.22;87.31
75497;BME280;64074;47.540;19.072;2023-08-06T02:49:59;99062.84;;;21.18;87.82
75497;BME280;64074;47.540;19.072;2023-08-06T02:53:02;99067.25;;;20.84;88.36
75497;BME280;64074;47.540;19.072;2023-08-06T02:56:05;99071.94;;;20.80;88.24
75497;BME280;64074;47.540;19.072;2023-08-06T02:59:34;99058.91;;;21.05;87.53
75497;BME280;64074;47.540;19.072;2023-08-06T03:02:50;99047.50;;;21.14;87.59
75497;BME280;64074;47.540;19.072;2023-08-06T03:06:04;99044.38;;;21.08;87.52
75497;BME280;64074;47.540;19.072;2023-08-06T03:09:23;99062.84;;;21.04;87.03
75497;BME280;64074;47.540;19.072;2023-08-06T03:12:27;99060.50;;;21.03;86.54
75497;BME280;64074;47.540;19.072;2023-08-06T03:15:32;99056.56;;;21.14;86.14
75497;BME280;64074;47.540;19.072;2023-08-06T03:18:35;99051.81;;;21.22;86.50
75497;BME280;64074;47.540;19.072;2023-08-06T03:21:41;99044.72;;;21.25;86.12
75497;BME280;64074;47.540;19.072;2023-08-06T03:24:44;99043.94;;;21.28;85.83
75497;BME280;64074;47.540;19.072;2023-08-06T03:27:48;99053.38;;;21.19;86.69
75497;BME280;64074;47.540;19.072;2023-08-06T03:31:03;99051.84;;;21.15;87.30
75497;BME280;64074;47.540;19.072;2023-08-06T03:34:13;99045.97;;;20.92;86.05
75497;BME280;64074;47.540;19.072;2023-08-06T03:37:16;99043.19;;;21.02;86.23
75497;BME280;64074;47.540;19.072;2023-08-06T03:40:23;99043.16;;;21.16;84.99
75497;BME280;64074;47.540;19.072;2023-08-06T03:43:26;99040.38;;;21.20;84.89
75497;BME280;64074;47.540;19.072;2023-08-06T03:46:30;99039.63;;;21.12;86.54
75497;BME280;64074;47.540;19.072;2023-08-06T03:49:39;99040.03;;;21.07;86.33
75497;BME280;64074;47.540;19.072;2023-08-06T03:52:44;99049.09;;;21.08;86.34
75497;BME280;64074;47.540;19.072;2023-08-06T03:55:47;99038.44;;;21.06;86.13
75497;BME280;64074;47.540;19.072;2023-08-06T03:58:50;99032.22;;;20.84;87.64
75497;BME280;64074;47.540;19.072;2023-08-06T04:01:53;99035.38;;;20.54;88.33
75497;BME280;64074;47.540;19.072;2023-08-06T04:04:56;99030.63;;;20.80;87.74
75497;BME280;64074;47.540;19.072;2023-08-06T04:08:02;99037.28;;;21.07;86.99
75497;BME280;64074;47.540;19.072;2023-08-06T04:11:06;99036.94;;;20.84;85.09
75497;BME280;64074;47.540;19.072;2023-08-06T04:14:09;99032.97;;;20.28;83.50
75497;BME280;64074;47.540;19.072;2023-08-06T04:17:12;99032.53;;;19.83;85.53
75497;BME280;64074;47.540;19.072;2023-08-06T04:20:16;99028.97;;;19.83;84.83
75497;BME280;64074;47.540;19.072;2023-08-06T04:23:20;99026.56;;;19.67;84.83
75497;BME280;64074;47.540;19.072;2023-08-06T04:26:23;99016.22;;;19.35;86.86
75497;BME280;64074;47.540;19.072;2023-08-06T04:29:26;99015.56;;;19.60;85.03
75497;BME280;64074;47.540;19.072;2023-08-06T04:32:30;99023.47;;;19.86;85.16
75497;BME280;64074;47.540;19.072;2023-08-06T04:35:33;99030.56;;;19.84;84.57
75497;BME280;64074;47.540;19.072;2023-08-06T04:38:37;99034.84;;;19.78;82.85
75497;BME280;64074;47.540;19.072;2023-08-06T04:41:41;99032.06;;;19.60;83.27
75497;BME280;64074;47.540;19.072;2023-08-06T04:44:44;99028.34;;;19.27;83.82
75497;BME280;64074;47.540;19.072;2023-08-06T04:47:47;99025.59;;;19.27;83.64
75497;BME280;64074;47.540;19.072;2023-08-06T04:50:50;99025.63;;;19.34;83.68
75497;BME280;64074;47.540;19.072;2023-08-06T04:53:53;99024.50;;;19.50;83.19
75497;BME280;64074;47.540;19.072;2023-08-06T04:56:56;99029.56;;;19.37;81.55
75497;BME280;64074;47.540;19.072;2023-08-06T04:59:59;99017.22;;;19.02;82.85
75497;BME280;64074;47.540;19.072;2023-08-06T05:03:01;99007.97;;;19.39;81.42
75497;BME280;64074;47.540;19.072;2023-08-06T05:06:04;99014.97;;;19.22;81.55
75497;BME280;64074;47.540;19.072;2023-08-06T05:09:08;99012.69;;;19.39;81.84
75497;BME280;64074;47.540;19.072;2023-08-06T05:12:11;99003.28;;;19.43;81.02
75497;BME280;64074;47.540;19.072;2023-08-06T05:15:14;99001.81;;;19.67;81.26
75497;BME280;64074;47.540;19.072;2023-08-06T05:18:17;98997.44;;;19.55;79.68
75497;BME280;64074;47.540;19.072;2023-08-06T05:21:20;99002.22;;;19.69;79.91
75497;BME280;64074;47.540;19.072;2023-08-06T05:24:23;99007.28;;;19.56;78.98
75497;BME280;64074;47.540;19.072;2023-08-06T05:27:27;99009.69;;;19.79;79.64
75497;BME280;64074;47.540;19.072;2023-08-06T05:30:30;99004.56;;;19.67;78.85
75497;BME280;64074;47.540;19.072;2023-08-06T05:33:32;99004.59;;;19.81;77.92
75497;BME280;64074;47.540;19.072;2023-08-06T05:36:36;99010.53;;;20.05;79.13
75497;BME280;64074;47.540;19.072;2023-08-06T05:39:39;99004.63;;;19.99;79.25
75497;BME280;64074;47.540;19.072;2023-08-06T05:42:43;98999.91;;;19.85;78.06
75497;BME280;64074;47.540;19.072;2023-08-06T05:45:46;99003.44;;;19.96;78.61
75497;BME280;64074;47.540;19.072;2023-08-06T05:48:49;98997.38;;;19.41;78.55
75497;BME280;64074;47.540;19.072;2023-08-06T05:51:54;98993.34;;;19.17;79.10
75497;BME280;64074;47.540;19.072;2023-08-06T05:54:57;98991.03;;;19.30;78.75
75497;BME280;64074;47.540;19.072;2023-08-06T05:58:00;98996.59;;;19.41;77.74
75497;BME280;64074;47.540;19.072;2023-08-06T06:01:03;98988.25;;;19.16;77.95
75497;BME280;64074;47.540;19.072;2023-08-06T06:04:06;98983.03;;;18.96;78.92
75497;BME280;64074;47.540;19.072;2023-08-06T06:07:08;98980.50;;;19.43;78.56
75497;BME280;64074;47.540;19.072;2023-08-06T06:10:11;98979.00;;;19.56;77.48
75497;BME280;64074;47.540;19.072;2023-08-06T06:13:14;98987.28;;;19.70;76.68
75497;BME280;64074;47.540;19.072;2023-08-06T06:16:17;98982.97;;;19.69;77.14
75497;BME280;64074;47.540;19.072;2023-08-06T06:19:21;98981.75;;;19.56;76.14
75497;BME280;64074;47.540;19.072;2023-08-06T06:22:24;98979.34;;;19.51;75.50
75497;BME280;64074;47.540;19.072;2023-08-06T06:25:27;98989.59;;;19.54;75.40
75497;BME280;64074;47.540;19.072;2023-08-06T06:28:31;98994.25;;;19.46;76.20
75497;BME280;64074;47.540;19.072;2023-08-06T06:31:34;98994.31;;;19.57;75.33
75497;BME280;64074;47.540;19.072;2023-08-06T06:34:36;98998.97;;;19.49;75.11
75497;BME280;64074;47.540;19.072;2023-08-06T06:37:39;99003.78;;;19.66;74.63
75497;BME280;64074;47.540;19.072;2023-08-06T06:40:43;99016.16;;;19.25;76.01
75497;BME280;64074;47.540;19.072;2023-08-06T06:43:46;99018.09;;;19.17;76.61
75497;BME280;64074;47.540;19.072;2023-08-06T06:46:50;99015.44;;;19.35;76.16
75497;BME280;64074;47.540;19.072;2023-08-06T06:49:53;99025.38;;;19.61;76.14
75497;BME280;64074;47.540;19.072;2023-08-06T06:52:56;99022.25;;;19.77;75.97
75497;BME280;64074;47.540;19.072;2023-08-06T06:56:03;99006.53;;;19.77;74.73
75497;BME280;64074;47.540;19.072;2023-08-06T06:59:07;99005.63;;;19.45;75.88
75497;BME280;64074;47.540;19.072;2023-08-06T07:02:10;99009.28;;;19.77;74.62
75497;BME280;64074;47.540;19.072;2023-08-06T07:05:14;99013.19;;;19.62;74.76
75497;BME280;64074;47.540;19.072;2023-08-06T07:08:17;98999.22;;;19.09;76.70
75497;BME280;64074;47.540;19.072;2023-08-06T07:11:21;99008.28;;;19.20;77.27
75497;BME280;64074;47.540;19.072;2023-08-06T07:14:25;99009.38;;;19.04;77.21
75497;BME280;64074;47.540;19.072;2023-08-06T07:17:28;99017.72;;;19.22;76.86
75497;BME280;64074;47.540;19.072;2023-08-06T07:20:31;99019.81;;;18.81;76.34
75497;BME280;64074;47.540;19.072;2023-08-06T07:23:35;99038.88;;;19.15;76.68
75497;BME280;64074;47.540;19.072;2023-08-06T07:26:39;99050.88;;;18.89;76.77
75497;BME280;64074;47.540;19.072;2023-08-06T07:29:42;99053.25;;;18.90;76.51
75497;BME280;64074;47.540;19.072;2023-08-06T07:32:45;99050.88;;;18.89;76.50
75497;BME280;64074;47.540;19.072;2023-08-06T07:35:49;99044.84;;;18.65;76.57
75497;BME280;64074;47.540;19.072;2023-08-06T07:38:52;99043.69;;;18.70;77.16
75497;BME280;64074;47.540;19.072;2023-08-06T07:41:58;99044.84;;;18.69;77.37
75497;BME280;64074;47.540;19.072;2023-08-06T07:45:01;99039.03;;;18.78;76.66
75497;BME280;64074;47.540;19.072;2023-08-06T07:48:05;99047.41;;;18.99;76.74
75497;BME280;64074;47.540;19.072;2023-08-06T07:51:08;99040.09;;;18.62;77.63
75497;BME280;64074;47.540;19.072;2023-08-06T07:54:13;99039.94;;;18.96;77.94
75497;BME280;64074;47.540;19.072;2023-08-06T07:57:16;99037.78;;;18.68;78.09
75497;BME280;64074;47.540;19.072;2023-08-06T08:00:19;99023.19;;;18.60;78.18
75497;BME280;64074;47.540;19.072;2023-08-06T08:03:23;99029.75;;;18.45;78.33
75497;BME280;64074;47.540;19.072;2023-08-06T08:06:25;99017.41;;;18.69;78.47
75497;BME280;64074;47.540;19.072;2023-08-06T08:09:29;99021.91;;;18.47;78.79
75497;BME280;64074;47.540;19.072;2023-08-06T08:12:33;99014.13;;;18.56;78.26
75497;BME280;64074;47.540;19.072;2023-08-06T08:15:35;99019.19;;;19.05;75.67
75497;BME280;64074;47.540;19.072;2023-08-06T08:18:39;99030.56;;;19.04;74.95
75497;BME280;64074;47.540;19.072;2023-08-06T08:21:41;99028.28;;;19.13;74.54
75497;BME280;64074;47.540;19.072;2023-08-06T08:24:44;99028.03;;;19.47;73.23
75497;BME280;64074;47.540;19.072;2023-08-06T08:27:47;99039.66;;;19.12;73.48
75497;BME280;64074;47.540;19.072;2023-08-06T08:30:51;99051.91;;;19.32;72.87
75497;BME280;64074;47.540;19.072;2023-08-06T08:33:54;99064.00;;;19.17;72.83
75497;BME280;64074;47.540;19.072;2023-08-06T08:36:59;99053.84;;;19.24;72.87
75497;BME280;64074;47.540;19.072;2023-08-06T08:40:02;99049.53;;;19.30;73.02
75497;BME280;64074;47.540;19.072;2023-08-06T08:43:07;99046.28;;;19.07;73.37
75497;BME280;64074;47.540;19.072;2023-08-06T08:46:11;99045.47;;;19.03;72.75
75497;BME280;64074;47.540;19.072;2023-08-06T08:49:15;99064.28;;;19.01;73.24
75497;BME280;64074;47.540;19.072;2023-08-06T08:52:20;99060.69;;;18.90;73.11
75497;BME280;64074;47.540;19.072;2023-08-06T08:55:25;99058.84;;;19.08;73.16
75497;BME280;64074;47.540;19.072;2023-08-06T08:58:29;99054.69;;;19.35;73.08
75497;BME280;64074;47.540;19.072;2023-08-06T09:01:37;99054.41;;;19.55;72.07
75497;BME280;64074;47.540;19.072;2023-08-06T09:04:44;99055.09;;;19.34;72.28
75497;BME280;64074;47.540;19.072;2023-08-06T09:07:48;99051.97;;;19.39;71.89
75497;BME280;64074;47.540;19.072;2023-08-06T09:10:52;99046.84;;;19.34;71.46
75497;BME280;64074;47.540;19.072;2023-08-06T09:13:55;99048.97;;;19.00;72.90
75497;BME280;64074;47.540;19.072;2023-08-06T09:16:58;99038.72;;;18.86;73.11
75497;BME280;64074;47.540;19.072;2023-08-06T09:20:12;99034.81;;;18.91;73.72
75497;BME280;64074;47.540;19.072;2023-08-06T09:23:16;99026.56;;;18.91;73.45
75497;BME280;64074;47.540;19.072;2023-08-06T09:26:20;99042.63;;;18.85;73.44
75497;BME280;64074;47.540;19.072;2023-08-06T09:29:23;99062.34;;;19.01;73.25
75497;BME280;64074;47.540;19.072;2023-08-06T09:32:26;99052.94;;;19.06;73.04
75497;BME280;64074;47.540;19.072;2023-08-06T09:35:30;99060.88;;;19.18;72.41
75497;BME280;64074;47.540;19.072;2023-08-06T09:38:37;99052.19;;;19.09;72.23
75497;BME280;64074;47.540;19.072;2023-08-06T09:41:42;99072.22;;;19.10;72.62
75497;BME280;64074;47.540;19.072;2023-08-06T09:44:46;99076.13;;;19.09;72.15
75497;BME280;64074;47.540;19.072;2023-08-06T09:47:56;99083.16;;;19.06;72.06
75497;BME280;64074;47.540;19.072;2023-08-06T09:50:59;99080.38;;;18.99;71.92
75497;BME280;64074;47.540;19.072;2023-08-06T09:54:04;99081.16;;;18.99;71.66
75497;BME280;64074;47.540;19.072;2023-08-06T09:57:27;99088.38;;;19.25;72.42
75497;BME280;64074;47.540;19.072;2023-08-06T10:00:31;99095.47;;;19.26;70.90
75497;BME280;64074;47.540;19.072;2023-08-06T10:03:40;99093.91;;;19.32;71.23
75497;BME280;64074;47.540;19.072;2023-08-06T10:06:46;99098.94;;;19.16;70.66
75497;BME280;64074;47.540;19.072;2023-08-06T10:09:50;99101.19;;;19.58;70.04
75497;BME280;64074;47.540;19.072;2023-08-06T10:12:55;99109.66;;;19.35;70.24
75497;BME280;64074;47.540;19.072;2023-08-06T10:16:00;99098.59;;;19.28;69.24
75497;BME280;64074;47.540;19.072;2023-08-06T10:19:12;99105.50;;;19.01;71.26
75497;BME280;64074;47.540;19.072;2023-08-06T10:22:19;99130.06;;;18.83;71.26
75497;BME280;64074;47.540;19.072;2023-08-06T10:25:24;99119.06;;;18.80;71.87
75497;BME280;64074;47.540;19.072;2023-08-06T10:28:37;99116.22;;;19.20;70.84
75497;BME280;64074;47.540;19.072;2023-08-06T10:31:54;99148.59;;;18.90;71.50
75497;BME280;64074;47.540;19.072;2023-08-06T10:35:00;99121.16;;;18.97;71.95
75497;BME280;64074;47.540;19.072;2023-08-06T10:38:08;99123.06;;;18.86;71.55
75497;BME280;64074;47.540;19.072;2023-08-06T10:44:20;99132.34;;;19.22;70.25
75497;BME280;64074;47.540;19.072;2023-08-06T10:47:38;99123.78;;;19.34;69.81
75497;BME280;64074;47.540;19.072;2023-08-06T10:50:45;99125.00;;;19.40;69.41
75497;BME280;64074;47.540;19.072;2023-08-06T10:53:50;99131.81;;;19.05;70.37
75497;BME280;64074;47.540;19.072;2023-08-06T10:56:54;99130.97;;;18.94;70.28
75497;BME280;64074;47.540;19.072;2023-08-06T10:59:57;99129.56;;;19.18;69.73
75497;BME280;64074;47.540;19.072;2023-08-06T11:03:18;99144.88;;;19.16;69.37
75497;BME280;64074;47.540;19.072;2023-08-06T11:06:22;99148.72;;;19.08;69.61
75497;BME280;64074;47.540;19.072;2023-08-06T11:09:26;99137.19;;;19.43;67.89
75497;BME280;64074;47.540;19.072;2023-08-06T11:12:30;99141.88;;;19.39;68.54
75497;BME280;64074;47.540;19.072;2023-08-06T11:15:34;99136.50;;;19.56;67.51
75497;BME280;64074;47.540;19.072;2023-08-06T11:18:37;99148.34;;;19.67;67.46
75497;BME280;64074;47.540;19.072;2023-08-06T11:21:40;99152.16;;;19.52;67.84
75497;BME280;64074;47.540;19.072;2023-08-06T11:24:42;99154.78;;;19.31;67.74
75497;BME280;64074;47.540;19.072;2023-08-06T11:27:45;99142.19;;;19.26;68.79
75497;BME280;64074;47.540;19.072;2023-08-06T11:30:50;99145.22;;;19.69;67.61
75497;BME280;64074;47.540;19.072;2023-08-06T11:33:54;99148.75;;;19.11;68.58
75497;BME280;64074;47.540;19.072;2023-08-06T11:36:58;99137.53;;;19.34;68.08
75497;BME280;64074;47.540;19.072;2023-08-06T11:40:01;99149.34;;;19.38;67.85
75497;BME280;64074;47.540;19.072;2023-08-06T11:43:05;99136.88;;;19.55;67.57
75497;BME280;64074;47.540;19.072;2023-08-06T11:46:09;99119.50;;;19.40;67.45
75497;BME280;64074;47.540;19.072;2023-08-06T11:49:13;99148.59;;;19.48;67.22
75497;BME280;64074;47.540;19.072;2023-08-06T11:52:19;99153.47;;;19.11;68.26
75497;BME280;64074;47.540;19.072;2023-08-06T11:55:24;99155.06;;;19.15;68.32
75497;BME280;64074;47.540;19.072;2023-08-06T11:58:29;99153.88;;;19.71;67.10
75497;BME280;64074;47.540;19.072;2023-08-06T12:01:31;99150.28;;;19.60;66.88
75497;BME280;64074;47.540;19.072;2023-08-06T12:04:57;99159.34;;;19.67;66.81
75497;BME280;64074;47.540;19.072;2023-08-06T12:08:02;99153.41;;;19.58;66.72
75497;BME280;64074;47.540;19.072;2023-08-06T12:11:05;99165.56;;;19.57;66.59
75497;BME280;64074;47.540;19.072;2023-08-06T12:14:07;99164.16;;;19.23;67.35
75497;BME280;64074;47.540;19.072;2023-08-06T12:17:11;99169.59;;;19.78;66.31
75497;BME280;64074;47.540;19.072;2023-08-06T12:20:15;99173.03;;;19.57;66.41
75497;BME280;64074;47.540;19.072;2023-08-06T12:23:19;99169.44;;;19.53;67.90
75497;BME280;64074;47.540;19.072;2023-08-06T12:26:22;99195.16;;;19.23;68.46
75497;BME280;64074;47.540;19.072;2023-08-06T12:29:27;99189.56;;;19.60;67.70
75497;BME280;64074;47.540;19.072;2023-08-06T12:32:31;99185.25;;;19.63;67.88
75497;BME280;64074;47.540;19.072;2023-08-06T12:35:35;99182.59;;;19.81;67.34
75497;BME280;64074;47.540;19.072;2023-08-06T12:38:40;99189.47;;;19.50;67.09
75497;BME280;64074;47.540;19.072;2023-08-06T12:41:43;99180.06;;;18.99;68.76
75497;BME280;64074;47.540;19.072;2023-08-06T12:44:49;99183.03;;;19.31;68.05
75497;BME280;64074;47.540;19.072;2023-08-06T12:47:52;99195.53;;;19.22;68.72
75497;BME280;64074;47.540;19.072;2023-08-06T12:50:55;99190.47;;;19.27;68.21
75497;BME280;64074;47.540;19.072;2023-08-06T12:53:58;99186.66;;;19.39;68.30
75497;BME280;64074;47.540;19.072;2023-08-06T12:57:01;99199.16;;;19.33;68.49
75497;BME280;64074;47.540;19.072;2023-08-06T13:00:04;99202.88;;;19.07;68.71
75497;BME280;64074;47.540;19.072;2023-08-06T13:03:07;99188.50;;;19.24;68.73
75497;BME280;64074;47.540;19.072;2023-08-06T13:06:10;99186.69;;;19.46;67.36
75497;BME280;64074;47.540;19.072;2023-08-06T13:09:13;99178.81;;;19.41;67.79
75497;BME280;64074;47.540;19.072;2023-08-06T13:12:17;99190.19;;;19.40;67.82
75497;BME280;64074;47.540;19.072;2023-08-06T13:15:22;99194.56;;;19.51;67.81
75497;BME280;64074;47.540;19.072;2023-08-06T13:18:25;99202.19;;;19.72;66.34
75497;BME280;64074;47.540;19.072;2023-08-06T13:21:34;99176.44;;;19.40;67.30
75497;BME280;64074;47.540;19.072;2023-08-06T13:24:37;99198.66;;;19.72;66.77
75497;BME280;64074;47.540;19.072;2023-08-06T13:27:40;99178.63;;;19.75;66.49
75497;BME280;64074;47.540;19.072;2023-08-06T13:30:43;99191.72;;;19.95;65.22
75497;BME280;64074;47.540;19.072;2023-08-06T13:33:47;99200.84;;;20.14;64.70
75497;BME280;64074;47.540;19.072;2023-08-06T13:36:51;99202.72;;;19.99;65.21
75497;BME280;64074;47.540;19.072;2023-08-06T13:39:55;99209.03;;;20.00;65.87
75497;BME280;64074;47.540;19.072;2023-08-06T13:42:59;99212.44;;;19.79;66.30
75497;BME280;64074;47.540;19.072;2023-08-06T13:46:02;99210.13;;;19.84;66.35
75497;BME280;64074;47.540;19.072;2023-08-06T13:49:05;99229.03;;;19.89;66.66
75497;BME280;64074;47.540;19.072;2023-08-06T13:52:07;99227.38;;;19.81;67.55
75497;BME280;64074;47.540;19.072;2023-08-06T13:55:23;99223.75;;;19.59;69.13
75497;BME280;64074;47.540;19.072;2023-08-06T13:58:26;99228.59;;;19.84;69.13
75497;BME280;64074;47.540;19.072;2023-08-06T14:01:29;99227.63;;;19.55;69.02
75497;BME280;64074;47.540;19.072;2023-08-06T14:04:53;99246.41;;;19.49;68.85
75497;BME280;64074;47.540;19.072;2023-08-06T14:07:57;99235.16;;;19.65;68.10
75497;BME280;64074;47.540;19.072;2023-08-06T14:11:00;99238.69;;;19.62;67.92
75497;BME280;64074;47.540;19.072;2023-08-06T14:14:03;99242.59;;;19.61;68.30
75497;BME280;64074;47.540;19.072;2023-08-06T14:17:06;99221.09;;;19.77;67.61
75497;BME280;64074;47.540;19.072;2023-08-06T14:20:09;99252.44;;;19.62;67.38
75497;BME280;64074;47.540;19.072;2023-08-06T14:23:14;99246.75;;;19.99;66.57
75497;BME280;64074;47.540;19.072;2023-08-06T14:26:18;99262.31;;;19.70;67.75
75497;BME280;64074;47.540;19.072;2023-08-06T14:29:22;99271.69;;;19.62;66.84
75497;BME280;64074;47.540;19.072;2023-08-06T14:32:24;99271.13;;;19.46;66.98
75497;BME280;64074;47.540;19.072;2023-08-06T14:35:29;99255.00;;;19.44;66.53
75497;BME280;64074;47.540;19.072;2023-08-06T14:38:33;99255.41;;;19.97;65.82
75497;BME280;64074;47.540;19.072;2023-08-06T14:41:44;99266.31;;;19.83;66.12
75497;BME280;64074;47.540;19.072;2023-08-06T14:44:47;99258.00;;;19.73;66.44
75497;BME280;64074;47.540;19.072;2023-08-06T14:47:50;99281.19;;;19.75;66.87
75497;BME280;64074;47.540;19.072;2023-08-06T14:50:54;99280.53;;;19.92;66.22
75497;BME280;64074;47.540;19.072;2023-08-06T14:53:57;99296.50;;;19.76;66.60
75497;BME280;64074;47.540;19.072;2023-08-06T14:57:00;99286.03;;;19.92;66.22
75497;BME280;64074;47.540;19.072;2023-08-06T15:00:03;99293.16;;;20.04;66.07
75497;BME280;64074;47.540;19.072;2023-08-06T15:03:07;99286.09;;;20.07;65.43
75497;BME280;64074;47.540;19.072;2023-08-06T15:06:10;99293.03;;;20.48;64.56
75497;BME280;64074;47.540;19.072;2023-08-06T15:09:14;99305.84;;;20.23;63.68
75497;BME280;64074;47.540;19.072;2023-08-06T15:12:17;99318.03;;;19.60;65.73
75497;BME280;64074;47.540;19.072;2023-08-06T15:15:21;99312.75;;;19.48;66.55
75497;BME280;64074;47.540;19.072;2023-08-06T15:18:25;99317.25;;;19.63;66.91
75497;BME280;64074;47.540;19.072;2023-08-06T15:21:27;99301.34;;;19.90;66.28
75497;BME280;64074;47.540;19.072;2023-08-06T15:24:31;99302.34;;;19.67;66.76
75497;BME280;64074;47.540;19.072;2023-08-06T15:27:34;99311.78;;;19.66;66.65
75497;BME280;64074;47.540;19.072;2023-08-06T15:30:38;99312.72;;;19.41;67.27
75497;BME280;64074;47.540;19.072;2023-08-06T15:33:42;99305.13;;;19.71;66.84
75497;BME280;64074;47.540;19.072;2023-08-06T15:36:45;99304.34;;;19.74;66.51
75497;BME280;64074;47.540;19.072;2023-08-06T15:39:48;99311.00;;;19.70;66.46
75497;BME280;64074;47.540;19.072;2023-08-06T15:42:51;99314.59;;;19.77;66.01
75497;BME280;64074;47.540;19.072;2023-08-06T15:45:55;99323.75;;;19.92;65.34
75497;BME280;64074;47.540;19.072;2023-08-06T15:48:58;99326.09;;;19.90;65.20
75497;BME280;64074;47.540;19.072;2023-08-06T15:52:01;99314.09;;;19.61;65.42
75497;BME280;64074;47.540;19.072;2023-08-06T15:55:05;99323.91;;;19.58;65.67
75497;BME280;64074;47.540;19.072;2023-08-06T15:58:08;99330.34;;;19.80;65.58
75497;BME280;64074;47.540;19.072;2023-08-06T16:01:11;99341.22;;;20.17;64.83
75497;BME280;64074;47.540;19.072;2023-08-06T16:04:14;99347.56;;;20.32;64.38
75497;BME280;64074;47.540;19.072;2023-08-06T16:07:18;99354.09;;;20.65;63.29
75497;BME280;64074;47.540;19.072;2023-08-06T16:10:22;99355.66;;;20.04;63.41